Time;durP1;ratioP1;P1;durP2;ratioP2;P2;SDS_P1;SDS_P2;PMS_P1;PMS_P2;Temp;Humidity;BMP_temperature;BMP_pressure;BME280_temperature;BME280_humidity;BME280_pressure;Samples;Min_cycle;Max_cycle;Signal;HPM_P1;HPM_P2
2023/10/26 00:00:25;;;;;;;20.27;14.77;;;11.70;99.90;;;;;;4987093;28;20434;-66
2023/10/26 00:02:52;;;;;;;17.67;14.23;;;11.70;99.90;;;;;;4988335;28;20191;-65
2023/10/26 00:05:18;;;;;;;16.00;13.27;;;11.60;99.90;;;;;;4987477;28;20443;-68
2023/10/26 00:07:43;;;;;;;18.80;13.57;;;11.60;99.90;;;;;;4988052;28;20473;-67
2023/10/26 00:10:09;;;;;;;16.90;13.50;;;11.60;99.90;;;;;;4985445;28;20440;-64
2023/10/26 00:12:35;;;;;;;15.90;14.20;;;11.60;99.90;;;;;;4989526;28;20202;-66
2023/10/26 00:15:01;;;;;;;15.97;13.43;;;11.60;99.90;;;;;;4983893;28;20262;-64
2023/10/26 00:17:26;;;;;;;16.80;13.70;;;11.60;99.90;;;;;;4988215;28;20216;-66
2023/10/26 00:19:52;;;;;;;21.80;16.47;;;11.60;99.90;;;;;;4985970;28;20183;-64
2023/10/26 00:22:19;;;;;;;18.93;16.23;;;11.70;99.90;;;;;;4987658;28;20258;-65
2023/10/26 00:24:45;;;;;;;19.73;16.73;;;11.70;99.90;;;;;;4986644;28;20291;-64
2023/10/26 00:27:10;;;;;;;21.40;17.37;;;11.70;99.90;;;;;;4986213;28;20458;-67
2023/10/26 00:29:36;;;;;;;19.60;15.20;;;11.70;99.90;;;;;;4988405;28;20423;-64
2023/10/26 00:32:04;;;;;;;20.50;15.70;;;11.70;99.90;;;;;;4986897;28;20180;-63
2023/10/26 00:34:30;;;;;;;21.73;16.90;;;11.70;99.90;;;;;;4987235;28;20585;-64
2023/10/26 00:36:55;;;;;;;18.50;15.00;;;11.70;99.90;;;;;;4986963;28;20435;-64
2023/10/26 00:39:21;;;;;;;18.63;14.83;;;11.70;99.90;;;;;;4987230;28;20249;-64
2023/10/26 00:41:50;;;;;;;18.73;14.40;;;11.70;99.90;;;;;;4986718;28;20275;-65
2023/10/26 00:44:16;;;;;;;18.20;14.87;;;11.70;99.90;;;;;;4984367;28;20264;-67
2023/10/26 00:46:42;;;;;;;16.53;14.23;;;11.60;99.90;;;;;;4988399;28;21138;-66
2023/10/26 00:49:11;;;;;;;16.27;13.70;;;11.60;99.90;;;;;;4985461;28;21061;-67
2023/10/26 00:51:38;;;;;;;16.03;13.97;;;11.60;99.90;;;;;;4987254;28;20461;-63
2023/10/26 00:54:05;;;;;;;15.70;13.53;;;11.60;99.90;;;;;;4985647;28;20866;-66
2023/10/26 00:56:31;;;;;;;16.13;13.80;;;11.60;99.90;;;;;;4987110;28;20809;-64
2023/10/26 00:58:57;;;;;;;16.60;13.60;;;11.60;99.90;;;;;;4986061;28;20435;-64
2023/10/26 01:01:24;;;;;;;15.67;13.50;;;11.60;99.90;;;;;;4986999;28;20669;-64
2023/10/26 01:03:52;;;;;;;15.73;12.70;;;11.50;99.90;;;;;;4984101;28;20541;-65
2023/10/26 01:06:17;;;;;;;13.83;11.40;;;11.50;99.90;;;;;;4986927;28;21302;-64
2023/10/26 01:08:43;;;;;;;21.63;14.03;;;11.50;99.90;;;;;;4986460;28;20510;-64
2023/10/26 01:11:09;;;;;;;14.23;11.33;;;11.50;99.90;;;;;;4985664;28;20659;-66
2023/10/26 01:13:35;;;;;;;17.10;12.13;;;11.50;99.90;;;;;;4985447;28;20191;-64
2023/10/26 01:16:02;;;;;;;14.17;12.77;;;11.50;99.90;;;;;;4988559;28;20470;-66
2023/10/26 01:18:28;;;;;;;14.87;13.23;;;11.50;99.90;;;;;;4991977;28;20442;-65
2023/10/26 01:20:54;;;;;;;15.33;13.63;;;11.50;99.90;;;;;;4993146;28;20488;-66
2023/10/26 01:23:20;;;;;;;16.80;14.40;;;11.50;99.90;;;;;;4990639;28;20194;-67
2023/10/26 01:25:51;;;;;;;17.63;14.57;;;11.50;99.90;;;;;;4993054;28;20179;-65
2023/10/26 01:28:17;;;;;;;18.20;15.17;;;11.50;99.90;;;;;;4981989;28;20179;-64
2023/10/26 01:30:43;;;;;;;19.80;15.80;;;11.50;99.90;;;;;;4993665;28;20474;-68
2023/10/26 01:33:09;;;;;;;16.73;13.80;;;11.40;99.90;;;;;;4991605;28;20802;-67
2023/10/26 01:35:41;;;;;;;15.13;13.43;;;11.40;99.90;;;;;;4991648;28;20183;-67
2023/10/26 01:38:06;;;;;;;14.40;12.90;;;11.40;99.90;;;;;;4991777;28;20493;-65
2023/10/26 01:40:33;;;;;;;16.83;12.93;;;11.30;99.90;;;;;;4991503;28;20538;-64
2023/10/26 01:42:58;;;;;;;13.93;12.53;;;11.30;99.90;;;;;;4991471;28;20191;-67
2023/10/26 01:45:24;;;;;;;13.80;11.63;;;11.20;99.90;;;;;;4990489;28;20447;-66
2023/10/26 01:47:50;;;;;;;14.63;12.30;;;11.30;99.90;;;;;;4992103;28;20243;-64
2023/10/26 01:50:17;;;;;;;12.10;10.90;;;11.40;99.90;;;;;;4991282;28;20227;-64
2023/10/26 01:52:43;;;;;;;13.10;11.70;;;11.30;99.90;;;;;;4991181;28;20518;-65
2023/10/26 01:55:09;;;;;;;13.10;11.10;;;11.30;99.90;;;;;;4991834;28;20214;-66
2023/10/26 01:57:35;;;;;;;13.43;10.00;;;11.30;99.90;;;;;;4991740;28;21123;-65
2023/10/26 02:00:01;;;;;;;12.90;11.40;;;11.30;99.90;;;;;;4993060;28;20195;-63
2023/10/26 02:02:27;;;;;;;12.20;10.80;;;11.40;99.90;;;;;;4990672;28;20197;-63
2023/10/26 02:04:54;;;;;;;12.10;10.00;;;11.30;99.90;;;;;;4981944;28;20427;-67
2023/10/26 02:07:20;;;;;;;13.07;11.47;;;11.30;99.90;;;;;;4992011;28;20260;-64
2023/10/26 02:09:46;;;;;;;13.10;11.63;;;11.30;99.90;;;;;;4991697;28;20437;-65
2023/10/26 02:12:12;;;;;;;11.70;10.50;;;11.30;99.90;;;;;;4990795;28;20446;-66
2023/10/26 02:14:38;;;;;;;12.23;10.80;;;11.30;99.90;;;;;;4988309;28;20183;-67
2023/10/26 02:17:04;;;;;;;13.70;12.37;;;11.30;99.90;;;;;;4992122;28;20516;-66
2023/10/26 02:19:30;;;;;;;11.43;10.33;;;11.30;99.90;;;;;;4991087;28;20444;-64
2023/10/26 02:21:56;;;;;;;13.40;11.40;;;11.30;99.90;;;;;;4991954;28;20421;-65
2023/10/26 02:24:21;;;;;;;12.63;11.17;;;11.30;99.90;;;;;;4991483;28;20191;-65
2023/10/26 02:26:47;;;;;;;13.00;11.40;;;11.30;99.90;;;;;;4991141;28;20316;-67
2023/10/26 02:29:13;;;;;;;14.30;12.17;;;11.30;99.90;;;;;;4992157;28;20183;-66
2023/10/26 02:31:38;;;;;;;13.83;12.33;;;11.20;99.90;;;;;;4991230;28;20626;-64
2023/10/26 02:34:04;;;;;;;12.93;11.50;;;11.20;99.90;;;;;;4991254;28;20972;-68
2023/10/26 02:36:30;;;;;;;13.30;11.90;;;11.20;99.90;;;;;;4990699;28;20564;-64
2023/10/26 02:38:56;;;;;;;13.87;12.20;;;11.30;99.90;;;;;;4991912;28;20199;-66
2023/10/26 02:41:22;;;;;;;13.50;12.10;;;11.30;99.90;;;;;;4992158;28;20464;-64
2023/10/26 02:43:47;;;;;;;14.37;12.90;;;11.40;99.90;;;;;;4988712;28;20239;-66
2023/10/26 02:46:13;;;;;;;15.13;13.13;;;11.30;99.90;;;;;;4991807;28;21101;-64
2023/10/26 02:48:39;;;;;;;16.33;13.87;;;11.30;99.90;;;;;;4981151;28;20197;-68
2023/10/26 02:51:05;;;;;;;18.90;14.37;;;11.30;99.90;;;;;;4990113;28;20178;-63
2023/10/26 02:53:31;;;;;;;15.30;13.40;;;11.30;99.90;;;;;;4989550;28;20442;-64
2023/10/26 02:55:57;;;;;;;14.80;13.20;;;11.30;99.90;;;;;;4990201;28;20441;-66
2023/10/26 02:58:22;;;;;;;16.90;14.57;;;11.30;99.90;;;;;;4990770;28;20519;-64
2023/10/26 03:00:48;;;;;;;16.40;13.97;;;11.30;99.90;;;;;;4989321;28;20607;-67
2023/10/26 03:03:14;;;;;;;15.47;13.90;;;11.20;99.90;;;;;;4990752;28;20184;-63
2023/10/26 03:05:40;;;;;;;16.43;14.63;;;11.20;99.90;;;;;;4990466;28;20441;-64
2023/10/26 03:08:05;;;;;;;16.37;14.40;;;11.20;99.90;;;;;;4990835;28;20298;-67
2023/10/26 03:10:31;;;;;;;15.90;14.20;;;11.20;99.90;;;;;;4991192;28;20183;-63
2023/10/26 03:12:57;;;;;;;18.00;15.57;;;11.20;99.90;;;;;;4989422;28;20186;-65
2023/10/26 03:15:23;;;;;;;16.00;14.30;;;11.10;99.90;;;;;;4989356;28;20278;-64
2023/10/26 03:17:49;;;;;;;18.90;14.00;;;11.10;99.90;;;;;;4986953;28;21300;-64
2023/10/26 03:20:15;;;;;;;17.37;14.77;;;11.10;99.90;;;;;;4989173;28;20447;-66
2023/10/26 03:22:41;;;;;;;15.00;13.33;;;11.10;99.90;;;;;;4992100;28;20186;-65
2023/10/26 03:25:07;;;;;;;17.23;15.40;;;11.10;99.90;;;;;;4992675;28;20191;-67
2023/10/26 03:27:33;;;;;;;16.30;14.30;;;11.10;99.90;;;;;;4992548;28;20219;-67
2023/10/26 03:29:58;;;;;;;15.93;14.33;;;11.10;99.90;;;;;;4989833;28;20641;-67
2023/10/26 03:32:24;;;;;;;14.43;12.93;;;11.20;99.90;;;;;;4990766;28;20190;-65
2023/10/26 03:34:50;;;;;;;17.90;14.83;;;11.10;99.90;;;;;;4988546;28;20589;-67
2023/10/26 03:37:16;;;;;;;15.67;13.97;;;11.10;99.90;;;;;;4990251;28;20180;-64
2023/10/26 03:39:42;;;;;;;16.70;14.63;;;11.20;99.90;;;;;;4989011;28;20533;-64
2023/10/26 03:42:07;;;;;;;16.10;14.40;;;11.20;99.90;;;;;;4989164;28;21204;-67
2023/10/26 03:44:33;;;;;;;17.13;14.43;;;11.20;99.90;;;;;;4988373;28;20206;-64
2023/10/26 03:46:59;;;;;;;16.30;14.60;;;11.10;99.90;;;;;;4987938;28;20227;-65
2023/10/26 03:49:25;;;;;;;17.37;15.17;;;11.10;99.90;;;;;;4990683;28;20241;-67
2023/10/26 03:51:50;;;;;;;16.37;14.67;;;11.20;99.90;;;;;;4988881;28;21166;-65
2023/10/26 03:54:16;;;;;;;16.50;14.80;;;11.20;99.90;;;;;;4989588;28;20226;-66
2023/10/26 03:56:42;;;;;;;20.33;16.40;;;11.20;99.90;;;;;;4987080;28;20202;-64
2023/10/26 03:59:08;;;;;;;16.70;14.93;;;11.10;99.90;;;;;;4988919;28;20215;-68
2023/10/26 04:01:35;;;;;;;15.33;13.73;;;11.10;99.90;;;;;;4989130;28;20186;-64
2023/10/26 04:04:02;;;;;;;15.90;14.20;;;11.10;99.90;;;;;;4988168;28;20773;-64
2023/10/26 04:06:30;;;;;;;18.30;14.10;;;11.10;99.90;;;;;;4988635;28;20507;-64
2023/10/26 04:08:56;;;;;;;15.50;13.47;;;11.00;99.90;;;;;;4988622;28;20462;-67
2023/10/26 04:11:23;;;;;;;20.00;14.00;;;11.00;99.90;;;;;;4980850;28;20430;-66
2023/10/26 04:13:48;;;;;;;14.43;12.93;;;11.00;99.90;;;;;;4985068;28;20427;-64
2023/10/26 04:16:15;;;;;;;16.77;13.17;;;11.00;99.90;;;;;;4989754;28;20428;-64
2023/10/26 04:18:41;;;;;;;13.77;12.37;;;11.00;99.90;;;;;;4989160;28;20635;-65
2023/10/26 04:21:06;;;;;;;15.87;13.03;;;11.10;99.90;;;;;;4988427;28;20420;-67
2023/10/26 04:23:32;;;;;;;18.87;13.53;;;11.10;99.90;;;;;;4988206;28;20338;-63
2023/10/26 04:25:58;;;;;;;15.03;13.37;;;11.10;99.90;;;;;;4987804;28;20191;-64
2023/10/26 04:28:24;;;;;;;15.00;12.57;;;11.10;99.90;;;;;;4988504;28;20318;-64
2023/10/26 04:30:50;;;;;;;14.20;12.80;;;11.10;99.90;;;;;;4989029;28;20199;-64
2023/10/26 04:33:16;;;;;;;15.10;12.70;;;11.10;99.90;;;;;;4988104;28;20919;-64
2023/10/26 04:35:46;;;;;;;16.90;13.00;;;11.00;99.90;;;;;;4988785;28;20465;-67
2023/10/26 04:38:12;;;;;;;15.47;13.80;;;11.10;99.90;;;;;;4989306;28;20432;-65
2023/10/26 04:40:39;;;;;;;16.10;13.87;;;11.10;99.90;;;;;;4985872;28;20450;-65
2023/10/26 04:43:06;;;;;;;17.03;15.33;;;11.10;99.90;;;;;;4984788;28;21023;-65
2023/10/26 04:45:34;;;;;;;16.40;13.73;;;11.10;99.90;;;;;;4989373;28;20516;-64
2023/10/26 04:48:00;;;;;;;16.80;14.87;;;11.00;99.90;;;;;;5005006;28;20476;-63
2023/10/26 04:50:27;;;;;;;16.60;14.80;;;11.00;99.90;;;;;;4991461;28;20435;-65
2023/10/26 04:52:53;;;;;;;15.97;14.00;;;11.00;99.90;;;;;;4986770;28;20431;-66
2023/10/26 04:55:19;;;;;;;16.83;14.07;;;11.00;99.90;;;;;;4987528;28;20488;-63
2023/10/26 04:57:45;;;;;;;16.20;14.03;;;11.00;99.90;;;;;;4988261;28;20977;-64
2023/10/26 05:00:11;;;;;;;15.30;13.40;;;11.10;99.90;;;;;;4988312;28;20441;-67
2023/10/26 05:02:38;;;;;;;15.60;13.90;;;11.10;99.90;;;;;;4987709;28;20518;-67
2023/10/26 05:05:04;;;;;;;18.13;14.53;;;11.10;99.90;;;;;;4986047;28;20891;-66
2023/10/26 05:07:30;;;;;;;14.60;13.03;;;11.10;99.90;;;;;;4985510;28;20996;-67
2023/10/26 05:09:57;;;;;;;16.23;14.43;;;11.10;99.90;;;;;;4984904;28;20951;-63
2023/10/26 05:12:22;;;;;;;15.70;14.07;;;11.10;99.90;;;;;;4986781;28;20893;-67
2023/10/26 05:14:49;;;;;;;18.40;15.00;;;11.10;99.90;;;;;;4985781;28;20431;-64
2023/10/26 05:17:14;;;;;;;16.37;13.90;;;11.00;99.90;;;;;;4985063;28;20188;-64
2023/10/26 05:19:40;;;;;;;16.30;13.70;;;11.00;99.90;;;;;;4987891;28;20426;-66
2023/10/26 05:22:06;;;;;;;17.23;15.30;;;11.00;99.90;;;;;;4985695;28;20882;-64
2023/10/26 05:24:32;;;;;;;19.10;16.20;;;11.00;99.90;;;;;;4987382;28;20187;-63
2023/10/26 05:26:58;;;;;;;19.50;15.60;;;10.90;99.90;;;;;;4988051;28;20690;-63
2023/10/26 05:29:24;;;;;;;17.03;14.90;;;10.90;99.90;;;;;;4988396;28;20434;-66
2023/10/26 05:31:49;;;;;;;17.10;15.30;;;11.00;99.90;;;;;;4987909;28;20183;-65
2023/10/26 05:34:15;;;;;;;18.50;15.37;;;11.00;99.90;;;;;;4985362;28;20216;-66
2023/10/26 05:36:41;;;;;;;17.33;14.73;;;11.00;99.90;;;;;;4987683;28;20912;-67
2023/10/26 05:39:07;;;;;;;19.77;16.33;;;11.00;99.90;;;;;;4987507;28;20228;-63
2023/10/26 05:41:35;;;;;;;18.80;15.80;;;11.00;99.90;;;;;;4987933;28;20576;-66
2023/10/26 05:44:01;;;;;;;18.30;16.00;;;11.00;99.90;;;;;;4986429;28;21024;-65
2023/10/26 05:46:27;;;;;;;18.37;16.20;;;11.00;99.90;;;;;;4987874;28;20610;-67
2023/10/26 05:48:52;;;;;;;21.27;16.83;;;11.00;99.90;;;;;;4987768;28;20176;-68
2023/10/26 05:51:18;;;;;;;19.37;16.47;;;11.00;99.90;;;;;;4987657;28;20222;-67
2023/10/26 05:53:44;;;;;;;26.63;18.57;;;10.90;99.90;;;;;;4988032;28;20191;-63
2023/10/26 05:56:10;;;;;;;20.70;16.27;;;10.90;99.90;;;;;;4987215;28;20215;-63
2023/10/26 05:58:36;;;;;;;21.67;16.57;;;10.90;99.90;;;;;;4987546;28;20192;-64
2023/10/26 06:01:02;;;;;;;24.40;18.03;;;10.90;99.90;;;;;;4987773;28;20488;-65
2023/10/26 06:03:28;;;;;;;22.57;19.03;;;11.00;99.90;;;;;;4984871;28;20195;-63
2023/10/26 06:06:00;;;;;;;25.63;19.90;;;11.00;99.90;;;;;;4990979;28;20418;-66
2023/10/26 06:08:26;;;;;;;27.10;20.37;;;10.90;99.90;;;;;;4991178;28;20445;-66
2023/10/26 06:10:52;;;;;;;27.93;20.93;;;10.90;99.90;;;;;;4993992;28;20838;-65
2023/10/26 06:13:18;;;;;;;29.67;21.40;;;11.00;99.90;;;;;;4991916;28;20440;-64
2023/10/26 06:15:44;;;;;;;27.20;20.63;;;10.90;99.90;;;;;;4992261;28;20192;-65
2023/10/26 06:18:10;;;;;;;25.33;20.43;;;10.90;99.90;;;;;;4992101;28;20516;-64
2023/10/26 06:20:36;;;;;;;29.40;22.80;;;10.90;99.90;;;;;;4991957;28;20512;-68
2023/10/26 06:23:02;;;;;;;28.00;21.53;;;10.80;99.90;;;;;;4991795;28;20183;-65
2023/10/26 06:25:28;;;;;;;28.40;22.20;;;10.90;99.90;;;;;;4990921;28;20804;-64
2023/10/26 06:27:55;;;;;;;31.23;22.43;;;10.90;99.90;;;;;;4991960;28;20505;-63
2023/10/26 06:30:21;;;;;;;30.57;24.70;;;10.90;99.90;;;;;;4991317;28;20430;-66
2023/10/26 06:32:46;;;;;;;33.27;24.20;;;10.90;99.90;;;;;;4991218;28;20467;-65
2023/10/26 06:35:12;;;;;;;32.27;24.53;;;10.90;99.90;;;;;;4991556;28;20210;-64
2023/10/26 06:37:38;;;;;;;34.53;24.20;;;10.90;99.90;;;;;;4991240;28;20184;-64
2023/10/26 06:40:08;;;;;;;30.50;22.97;;;10.90;99.90;;;;;;4991824;28;20214;-64
2023/10/26 06:42:34;;;;;;;32.10;23.53;;;10.90;99.90;;;;;;4989660;28;20669;-63
2023/10/26 06:45:00;;;;;;;36.00;23.83;;;10.90;99.90;;;;;;4988866;28;20448;-65
2023/10/26 06:47:26;;;;;;;34.07;25.90;;;10.90;99.90;;;;;;4990310;28;20219;-65
2023/10/26 06:49:51;;;;;;;34.90;24.90;;;10.90;99.90;;;;;;4990531;28;20179;-63
2023/10/26 06:52:17;;;;;;;30.47;22.63;;;10.90;99.90;;;;;;4990913;28;20245;-64
2023/10/26 06:54:49;;;;;;;33.23;23.63;;;10.90;99.90;;;;;;4990216;28;20179;-66
2023/10/26 06:57:15;;;;;;;35.13;23.90;;;10.80;99.90;;;;;;4991883;28;21363;-66
2023/10/26 06:59:41;;;;;;;31.67;23.10;;;10.90;99.90;;;;;;4990678;28;20588;-65
2023/10/26 07:02:07;;;;;;;32.73;23.03;;;10.90;99.90;;;;;;4990774;28;21302;-63
2023/10/26 07:04:35;;;;;;;38.57;25.73;;;10.90;99.90;;;;;;4989531;28;20266;-64
2023/10/26 07:07:01;;;;;;;33.93;24.80;;;11.00;99.90;;;;;;4990760;28;21131;-63
2023/10/26 07:09:27;;;;;;;33.40;23.77;;;11.00;99.90;;;;;;4990801;28;20427;-64
2023/10/26 07:11:52;;;;;;;32.50;23.47;;;11.00;99.90;;;;;;4991123;28;20183;-64
2023/10/26 07:14:18;;;;;;;32.20;22.57;;;11.00;99.90;;;;;;4988035;28;20188;-65
2023/10/26 07:16:44;;;;;;;34.83;25.37;;;10.90;99.90;;;;;;4990640;28;20194;-66
2023/10/26 07:19:10;;;;;;;32.37;23.67;;;10.90;99.90;;;;;;4990806;28;20188;-66
2023/10/26 07:21:36;;;;;;;33.23;22.83;;;11.00;99.90;;;;;;4990189;28;20237;-64
2023/10/26 07:24:02;;;;;;;31.03;22.87;;;10.90;99.90;;;;;;4989838;28;20430;-64
2023/10/26 07:26:28;;;;;;;34.60;23.67;;;11.00;99.90;;;;;;4990269;28;21117;-62
2023/10/26 07:28:55;;;;;;;31.10;22.10;;;11.00;99.90;;;;;;4987447;28;20445;-64
2023/10/26 07:31:21;;;;;;;28.37;20.47;;;11.00;99.90;;;;;;4982456;28;20290;-65
2023/10/26 07:33:50;;;;;;;33.27;23.10;;;11.00;99.90;;;;;;4988489;28;20937;-65
2023/10/26 07:36:16;;;;;;;34.00;22.37;;;11.10;99.90;;;;;;4992836;28;20427;-64
2023/10/26 07:38:41;;;;;;;31.50;23.00;;;11.00;99.90;;;;;;4990798;28;20454;-66
2023/10/26 07:41:08;;;;;;;29.57;21.47;;;11.00;99.90;;;;;;4990647;28;20292;-66
2023/10/26 07:43:36;;;;;;;29.20;21.70;;;11.00;99.90;;;;;;4989000;28;20191;-65
2023/10/26 07:46:03;;;;;;;27.10;20.43;;;11.10;99.90;;;;;;4990209;28;20797;-63
2023/10/26 07:48:29;;;;;;;30.53;21.50;;;11.10;99.90;;;;;;4990290;28;20566;-67
2023/10/26 07:50:57;;;;;;;28.57;20.37;;;11.10;99.90;;;;;;4990138;28;20517;-64
2023/10/26 07:53:23;;;;;;;28.30;20.13;;;11.10;99.90;;;;;;4989426;28;20430;-63
2023/10/26 07:55:50;;;;;;;25.90;20.17;;;11.10;99.90;;;;;;4989597;28;20496;-63
2023/10/26 07:58:16;;;;;;;29.57;21.33;;;11.10;99.90;;;;;;4989886;28;20438;-66
2023/10/26 08:00:41;;;;;;;31.80;21.90;;;11.10;99.90;;;;;;4989382;28;20450;-67
2023/10/26 08:03:07;;;;;;;31.90;20.97;;;11.20;99.90;;;;;;4989641;28;20657;-66
2023/10/26 08:05:34;;;;;;;28.80;20.67;;;11.20;99.90;;;;;;4989498;28;20187;-64
2023/10/26 08:08:01;;;;;;;27.67;19.93;;;11.20;99.90;;;;;;4990234;28;20211;-67
2023/10/26 08:10:26;;;;;;;27.90;19.63;;;11.20;99.90;;;;;;4989434;28;20485;-65
2023/10/26 08:12:52;;;;;;;29.30;19.77;;;11.20;99.90;;;;;;4988469;28;20426;-65
2023/10/26 08:15:20;;;;;;;26.50;20.53;;;11.20;99.90;;;;;;4987091;28;20183;-65
2023/10/26 08:17:46;;;;;;;29.17;21.57;;;11.20;99.90;;;;;;4989491;28;20453;-63
2023/10/26 08:20:12;;;;;;;31.20;22.37;;;11.10;99.90;;;;;;5004407;28;20422;-66
2023/10/26 08:22:37;;;;;;;30.50;21.30;;;11.10;99.90;;;;;;4989458;28;20176;-64
2023/10/26 08:25:04;;;;;;;33.70;22.20;;;11.10;99.90;;;;;;4989255;28;20438;-67
2023/10/26 08:27:29;;;;;;;30.97;22.30;;;11.10;99.90;;;;;;4989562;28;20219;-66
2023/10/26 08:29:55;;;;;;;29.60;20.80;;;11.10;99.90;;;;;;4990769;28;21348;-67
2023/10/26 08:32:21;;;;;;;30.43;20.90;;;11.00;99.90;;;;;;4990977;28;20895;-65
2023/10/26 08:34:47;;;;;;;33.47;23.70;;;11.00;99.90;;;;;;4989265;28;20191;-63
2023/10/26 08:37:13;;;;;;;33.03;22.30;;;11.00;99.90;;;;;;4991278;28;20190;-65
2023/10/26 08:39:39;;;;;;;32.40;23.30;;;11.10;99.90;;;;;;4990586;28;20924;-64
2023/10/26 08:42:05;;;;;;;32.77;23.40;;;11.10;99.90;;;;;;4990097;28;21297;-65
2023/10/26 08:44:31;;;;;;;31.13;22.87;;;11.00;99.90;;;;;;4990232;28;20454;-67
2023/10/26 08:47:03;;;;;;;29.20;20.40;;;11.00;99.90;;;;;;4990106;28;20463;-64
2023/10/26 08:49:30;;;;;;;31.80;22.47;;;11.00;99.90;;;;;;4991311;28;20549;-66
2023/10/26 08:51:56;;;;;;;30.90;20.77;;;11.00;99.90;;;;;;4990475;28;20434;-66
2023/10/26 08:54:22;;;;;;;28.30;19.87;;;11.00;99.90;;;;;;4990085;28;20437;-63
2023/10/26 08:56:48;;;;;;;27.10;19.30;;;11.00;99.90;;;;;;4992105;28;20422;-65
2023/10/26 08:59:14;;;;;;;29.57;19.60;;;11.00;99.90;;;;;;4993832;28;20263;-63
2023/10/26 09:01:44;;;;;;;28.33;18.87;;;11.00;99.90;;;;;;4991517;28;20194;-64
2023/10/26 09:04:10;;;;;;;27.90;18.20;;;11.00;99.90;;;;;;4989454;28;20414;-66
2023/10/26 09:06:49;;;;;;;30.90;21.00;;;11.00;99.90;;;;;;4990789;28;20956;-64
2023/10/26 09:09:15;;;;;;;30.03;20.50;;;11.10;99.90;;;;;;4990138;28;20430;-66
2023/10/26 09:11:42;;;;;;;26.67;19.33;;;11.10;99.90;;;;;;4990603;28;20480;-63
2023/10/26 09:14:22;;;;;;;32.30;18.60;;;11.10;99.90;;;;;;4986647;28;20967;-67
2023/10/26 09:16:49;;;;;;;25.30;19.00;;;11.10;99.90;;;;;;4989113;28;21166;-63
2023/10/26 09:19:17;;;;;;;22.03;16.30;;;11.10;99.90;;;;;;4990353;28;20435;-66
2023/10/26 09:21:57;;;;;;;23.90;18.00;;;11.10;99.90;;;;;;4989034;28;20442;-65
2023/10/26 09:24:26;;;;;;;21.57;16.20;;;11.20;99.90;;;;;;4988386;28;20445;-64
2023/10/26 09:26:53;;;;;;;25.13;16.73;;;11.20;99.90;;;;;;4988764;28;20489;-65
2023/10/26 09:29:20;;;;;;;23.90;16.63;;;11.20;99.90;;;;;;4990113;28;20473;-66
2023/10/26 09:31:56;;;;;;;19.77;15.50;;;11.20;99.90;;;;;;4990081;28;20501;-63
2023/10/26 09:34:24;;;;;;;20.13;15.07;;;11.30;99.90;;;;;;4988283;28;20443;-65
2023/10/26 09:37:03;;;;;;;19.47;15.47;;;11.30;99.90;;;;;;4990059;28;20465;-66
2023/10/26 09:39:31;;;;;;;21.27;15.73;;;11.30;99.90;;;;;;4993032;28;20528;-64
2023/10/26 09:42:03;;;;;;;22.43;16.00;;;11.20;99.90;;;;;;4993173;28;20426;-65
2023/10/26 09:44:32;;;;;;;25.53;18.27;;;11.20;99.90;;;;;;4992414;28;20450;-66
2023/10/26 09:46:58;;;;;;;24.80;17.13;;;11.20;99.90;;;;;;4991934;28;21251;-63
2023/10/26 09:49:27;;;;;;;24.57;18.43;;;11.20;99.90;;;;;;4993782;28;20521;-65
2023/10/26 09:51:53;;;;;;;26.00;18.67;;;11.20;99.90;;;;;;4992513;28;20430;-66
2023/10/26 09:54:24;;;;;;;24.03;18.17;;;11.10;99.90;;;;;;4992246;28;20525;-67
2023/10/26 09:57:00;;;;;;;25.63;18.73;;;11.20;99.90;;;;;;4999488;28;20441;-64
2023/10/26 09:59:28;;;;;;;26.10;18.70;;;11.20;99.90;;;;;;4993374;28;20431;-64
2023/10/26 10:01:54;;;;;;;24.73;19.33;;;11.10;99.90;;;;;;4992633;28;20430;-64
2023/10/26 10:04:37;;;;;;;28.13;18.93;;;11.20;99.90;;;;;;4992304;28;20433;-65
2023/10/26 10:07:04;;;;;;;27.10;19.70;;;11.20;99.90;;;;;;4991889;28;20301;-66
2023/10/26 10:09:30;;;;;;;27.10;19.07;;;11.30;99.90;;;;;;4993367;28;20480;-66
2023/10/26 10:12:08;;;;;;;26.17;19.23;;;11.40;99.90;;;;;;4992563;28;20426;-64
2023/10/26 10:14:50;;;;;;;24.80;17.83;;;11.40;99.90;;;;;;4989883;28;20522;-66
2023/10/26 10:17:20;;;;;;;21.97;17.67;;;11.40;99.90;;;;;;4992003;28;20493;-65
2023/10/26 10:19:47;;;;;;;21.67;16.87;;;11.60;99.90;;;;;;4995093;28;20521;-65
2023/10/26 10:22:36;;;;;;;26.73;18.30;;;11.70;99.90;;;;;;4993831;28;20427;-67
2023/10/26 10:25:02;;;;;;;26.10;18.03;;;11.80;99.90;;;;;;4992876;28;20427;-65
2023/10/26 10:27:27;;;;;;;26.47;17.37;;;11.80;99.90;;;;;;4991346;28;20999;-66
2023/10/26 10:29:58;;;;;;;26.60;18.20;;;12.00;99.90;;;;;;4993109;28;20437;-64
2023/10/26 10:32:48;;;;;;;23.90;17.47;;;12.10;99.90;;;;;;4991152;28;20215;-65
2023/10/26 10:35:46;;;;;;;26.57;18.87;;;12.20;99.90;;;;;;4991878;28;20431;-65
2023/10/26 10:38:11;;;;;;;22.87;16.57;;;12.20;99.90;;;;;;4991643;28;20433;-63
2023/10/26 10:40:38;;;;;;;26.47;17.47;;;12.20;99.90;;;;;;4992239;28;20427;-66
2023/10/26 10:43:04;;;;;;;27.27;18.77;;;12.20;99.90;;;;;;4990855;28;20641;-64
2023/10/26 10:45:30;;;;;;;24.90;17.73;;;12.10;99.90;;;;;;4991424;28;20812;-63
2023/10/26 10:47:56;;;;;;;26.50;18.00;;;12.20;99.90;;;;;;4991158;28;20473;-64
2023/10/26 10:50:30;;;;;;;23.40;16.70;;;12.10;99.90;;;;;;4990589;28;20187;-66
2023/10/26 10:52:56;;;;;;;24.97;18.10;;;12.00;99.90;;;;;;4991785;28;20186;-66
2023/10/26 10:55:26;;;;;;;25.03;17.33;;;12.00;99.90;;;;;;4981428;28;20433;-64
2023/10/26 10:57:59;;;;;;;26.77;18.17;;;12.00;99.90;;;;;;4992667;28;20194;-65
2023/10/26 11:00:41;;;;;;;27.00;18.70;;;12.00;99.90;;;;;;4991811;28;20427;-68
2023/10/26 11:03:06;;;;;;;28.00;19.00;;;11.90;99.90;;;;;;4990928;28;20427;-64
2023/10/26 11:05:36;;;;;;;26.77;18.27;;;11.90;99.90;;;;;;4991784;28;21138;-64
2023/10/26 11:08:04;;;;;;;25.43;18.43;;;11.90;99.90;;;;;;4991661;28;20222;-65
2023/10/26 11:10:30;;;;;;;25.23;17.40;;;12.00;99.90;;;;;;4991322;28;20441;-64
2023/10/26 11:12:55;;;;;;;22.33;16.00;;;12.10;99.90;;;;;;4991173;28;20418;-67
2023/10/26 11:15:39;;;;;;;20.60;14.70;;;12.20;99.90;;;;;;4989168;28;20222;-63
2023/10/26 11:18:07;;;;;;;22.23;15.40;;;12.30;99.90;;;;;;4990932;28;20191;-66
2023/10/26 11:20:40;;;;;;;21.00;15.60;;;12.50;99.90;;;;;;4989980;28;20433;-64
2023/10/26 11:23:10;;;;;;;19.50;14.33;;;12.60;99.90;;;;;;4990152;28;20484;-65
2023/10/26 11:25:36;;;;;;;16.13;13.00;;;12.80;99.90;;;;;;4990642;28;21751;-64
2023/10/26 11:28:02;;;;;;;16.20;13.30;;;13.00;99.90;;;;;;4990805;28;20470;-65
2023/10/26 11:30:30;;;;;;;18.17;12.60;;;13.10;99.90;;;;;;4990042;28;21018;-64
2023/10/26 11:32:55;;;;;;;17.27;12.40;;;13.20;99.90;;;;;;4990686;28;20433;-63
2023/10/26 11:35:23;;;;;;;21.73;12.77;;;13.30;99.90;;;;;;4990620;28;20437;-64
2023/10/26 11:37:54;;;;;;;16.03;11.43;;;13.40;99.90;;;;;;4990987;28;20194;-66
2023/10/26 11:40:29;;;;;;;11.63;10.43;;;13.50;99.90;;;;;;4990744;28;20430;-63
2023/10/26 11:43:03;;;;;;;11.70;9.57;;;13.60;99.90;;;;;;4991268;28;20434;-65
2023/10/26 11:45:29;;;;;;;9.97;8.73;;;13.60;99.90;;;;;;4991561;28;20452;-63
2023/10/26 11:47:58;;;;;;;12.00;10.00;;;13.70;99.90;;;;;;4992857;28;20963;-63
2023/10/26 11:50:30;;;;;;;10.00;8.10;;;13.70;99.90;;;;;;4989677;28;20437;-66
2023/10/26 11:53:00;;;;;;;10.07;8.33;;;13.80;99.90;;;;;;4989911;28;20434;-64
2023/10/26 11:55:27;;;;;;;9.20;7.60;;;13.80;99.90;;;;;;4989281;28;20442;-63
2023/10/26 11:57:57;;;;;;;15.13;7.80;;;13.80;99.90;;;;;;4990498;28;20433;-66
2023/10/26 12:00:23;;;;;;;8.77;7.97;;;13.80;99.90;;;;;;4990010;28;20488;-65
2023/10/26 12:02:49;;;;;;;9.20;7.40;;;13.70;99.90;;;;;;4988985;28;20454;-65
2023/10/26 12:05:18;;;;;;;9.23;8.27;;;13.70;99.90;;;;;;4990764;28;20937;-65
2023/10/26 12:08:04;;;;;;;9.23;7.70;;;13.70;99.90;;;;;;4989914;28;20241;-66
2023/10/26 12:10:50;;;;;;;9.53;7.73;;;13.80;99.90;;;;;;4989954;28;20429;-63
2023/10/26 12:13:36;;;;;;;8.10;6.40;;;13.80;99.90;;;;;;4987736;28;20505;-67
2023/10/26 12:16:21;;;;;;;8.17;7.37;;;13.70;99.90;;;;;;4990081;28;20438;-66
2023/10/26 12:19:07;;;;;;;10.83;7.07;;;13.60;99.90;;;;;;4990351;28;20427;-64
2023/10/26 12:21:32;;;;;;;7.03;6.33;;;13.50;99.90;;;;;;4989505;28;20488;-64
2023/10/26 12:23:58;;;;;;;8.30;7.50;;;13.40;99.90;;;;;;4989167;28;20176;-64
2023/10/26 12:26:24;;;;;;;7.17;6.47;;;13.40;99.90;;;;;;4989688;28;20187;-67
2023/10/26 12:28:50;;;;;;;7.47;6.23;;;13.40;99.90;;;;;;4989594;28;20179;-65